SMF weather

Sacramento International Airport
Sacramento, California, United States

Public forecast

Using degrees Fahrenheit for public forecast. Weather courtesy of forecast.io.

Current aviation weather report (METAR) for Sacramento International Airport

Retrieved 2020/07/12 20:53 UTC (1 hour ago):

KSMF 122053Z 22005KT 10SM CLR 36/10 A2983 RMK AO2 SLP099 T03560100 58020

Aviation forecast (TAF) for Sacramento International Airport

Retrieved 2020/07/12 18:22 UTC (4 hours ago):

TAF KSMF 121720Z 1218/1318 VRB05KT P6SM SKC FM122300 19008KT P6SM SKC FM130600 16011KT P6SM SKC